Time;durP1;ratioP1;P1;durP2;ratioP2;P2;SDS_P1;SDS_P2;PMS_P1;PMS_P2;Temp;Humidity;BMP_temperature;BMP_pressure;BME280_temperature;BME280_humidity;BME280_pressure;Samples;Min_cycle;Max_cycle;Signal;HPM_P1;HPM_P2
2021/06/16 00:00:17;;;;;;;6.00;5.47;;;;;;;12.77;77.70;93185.53;5011100;28;20136;-39
2021/06/16 00:02:43;;;;;;;5.47;5.18;;;;;;;12.81;78.04;93182.34;5011205;28;20029;-39
2021/06/16 00:05:11;;;;;;;6.32;5.88;;;;;;;12.76;78.68;93167.44;5011383;28;20084;-39
2021/06/16 00:07:37;;;;;;;6.40;5.68;;;;;;;12.74;79.59;93183.16;5010064;28;20026;-39
2021/06/16 00:10:04;;;;;;;6.13;5.65;;;;;;;12.87;78.83;93174.53;5011317;28;20026;-39
2021/06/16 00:12:29;;;;;;;6.25;5.75;;;;;;;12.91;78.84;93172.81;5010924;28;20030;-38
2021/06/16 00:14:55;;;;;;;5.30;4.80;;;;;;;12.91;78.75;93174.84;5010951;28;20040;-38
2021/06/16 00:17:20;;;;;;;5.40;5.00;;;;;;;12.78;79.61;93177.94;5006876;28;20038;-38
2021/06/16 00:19:46;;;;;;;6.32;5.53;;;;;;;12.88;79.45;93184.31;4991412;28;20058;-39
2021/06/16 00:22:12;;;;;;;5.40;5.10;;;;;;;12.83;79.99;93179.75;4991346;28;20105;-39
2021/06/16 00:24:38;;;;;;;5.63;5.25;;;;;;;12.85;80.42;93158.47;5010714;28;20494;-40
2021/06/16 00:27:04;;;;;;;6.10;5.65;;;;;;;12.91;80.80;93161.72;5025918;28;20036;-39
2021/06/16 00:29:29;;;;;;;8.00;6.07;;;;;;;12.98;80.44;93164.97;5010988;28;20028;-39
2021/06/16 00:31:55;;;;;;;6.13;5.63;;;;;;;13.03;80.68;93159.22;5011041;28;20029;-39
2021/06/16 00:34:20;;;;;;;6.75;6.07;;;;;;;13.05;81.37;93173.25;5010570;28;20025;-39
2021/06/16 00:36:46;;;;;;;7.90;5.38;;;;;;;13.07;81.25;93161.59;5010626;28;20026;-39
2021/06/16 00:39:12;;;;;;;5.85;5.47;;;;;;;13.12;80.96;93160.63;5010196;28;20070;-39
2021/06/16 00:41:38;;;;;;;6.80;5.40;;;;;;;13.06;81.04;93152.53;5010710;28;20037;-40
2021/06/16 00:44:05;;;;;;;5.60;5.20;;;;;;;13.22;80.94;93162.16;5010719;28;20060;-39
2021/06/16 00:46:30;;;;;;;90.53;83.07;;;;;;;13.20;81.56;93155.69;5009830;28;20069;-39
2021/06/16 00:48:56;;;;;;;53.17;48.65;;;;;;;13.25;81.31;93154.72;5009979;28;20022;-39
2021/06/16 00:51:21;;;;;;;65.10;60.30;;;;;;;13.39;80.57;93153.06;5016236;28;20075;-39
2021/06/16 00:53:47;;;;;;;26.67;24.85;;;;;;;13.31;79.66;93131.00;5030281;28;20029;-40
2021/06/16 00:56:12;;;;;;;5.90;5.13;;;;;;;13.32;80.26;93142.81;5029885;28;20460;-40
2021/06/16 00:58:38;;;;;;;8.60;5.45;;;;;;;13.18;80.57;93134.09;5011424;28;20030;-40
2021/06/16 01:01:23;;;;;;;5.32;4.95;;;;;;;13.33;80.25;93136.69;5025368;28;20516;-39
2021/06/16 01:03:55;;;;;;;5.00;4.60;;;;;;;13.35;79.73;93145.16;5010684;28;20030;-39
2021/06/16 01:06:33;;;;;;;5.47;4.72;;;;;;;13.31;79.36;93146.88;5025340;28;20116;-40
2021/06/16 01:09:11;;;;;;;5.88;5.38;;;;;;;13.33;79.26;93144.28;5009103;28;20049;-40
2021/06/16 01:11:54;;;;;;;7.28;5.28;;;;;;;13.30;79.56;93135.06;5010368;28;20103;-39
2021/06/16 01:14:22;;;;;;;5.15;4.75;;;;;;;13.02;80.07;93123.72;5009924;28;20064;-39
2021/06/16 01:16:52;;;;;;;7.18;5.53;;;;;;;13.17;79.93;93142.97;5025120;28;20026;-39
2021/06/16 01:19:31;;;;;;;8.45;6.00;;;;;;;13.13;80.34;93134.34;5025415;28;20025;-39
2021/06/16 01:22:00;;;;;;;6.40;5.80;;;;;;;13.09;80.75;93137.53;5009904;28;20555;-39
2021/06/16 01:24:27;;;;;;;5.95;5.35;;;;;;;13.20;80.55;93145.34;5008654;28;20026;-39
2021/06/16 01:26:54;;;;;;;6.25;5.75;;;;;;;13.19;80.73;93138.34;5008536;28;20026;-40
2021/06/16 01:29:27;;;;;;;6.53;5.93;;;;;;;13.18;80.85;93128.56;5008875;28;20030;-39
2021/06/16 01:31:53;;;;;;;6.03;5.45;;;;;;;13.10;81.04;93143.81;5008865;28;20044;-38
2021/06/16 01:34:22;;;;;;;7.18;5.90;;;;;;;13.13;79.98;93148.94;5008507;28;20037;-38
2021/06/16 01:36:49;;;;;;;5.53;5.07;;;;;;;13.15;79.33;93129.69;5009509;28;20038;-38
2021/06/16 01:39:20;;;;;;;5.53;5.10;;;;;;;13.16;79.69;93133.94;5009492;28;20437;-39
2021/06/16 01:41:47;;;;;;;5.22;4.72;;;;;;;13.15;79.18;93138.00;5009900;28;20114;-39
2021/06/16 01:44:13;;;;;;;8.68;5.55;;;;;;;13.15;79.52;93137.28;5008908;28;20033;-39
2021/06/16 01:46:41;;;;;;;6.30;5.80;;;;;;;12.91;80.53;93116.66;5009708;28;20117;-39
2021/06/16 01:49:07;;;;;;;7.22;6.57;;;;;;;12.99;81.35;93136.72;5025358;28;20424;-39
2021/06/16 01:51:33;;;;;;;7.47;6.88;;;;;;;13.03;81.83;93139.81;5009518;28;20034;-39
2021/06/16 01:53:59;;;;;;;7.90;7.03;;;;;;;13.08;82.04;93138.84;5008166;28;20095;-39
2021/06/16 01:56:26;;;;;;;7.03;6.32;;;;;;;13.08;82.16;93138.13;5008401;28;20018;-39
2021/06/16 01:58:53;;;;;;;7.20;6.32;;;;;;;13.13;81.94;93131.56;5009294;28;20092;-39
2021/06/16 02:01:21;;;;;;;6.35;5.85;;;;;;;13.20;81.23;93130.75;5012187;28;20097;-39
2021/06/16 02:03:46;;;;;;;7.38;6.78;;;;;;;13.22;81.19;93128.88;5013068;28;20060;-39
2021/06/16 02:06:17;;;;;;;6.70;6.10;;;;;;;13.33;80.17;93125.59;5013254;28;20049;-38
2021/06/16 02:08:43;;;;;;;6.80;6.00;;;;;;;13.38;79.99;93123.88;5012978;28;20024;-39
2021/06/16 02:11:09;;;;;;;6.15;5.72;;;;;;;13.40;80.06;93133.09;5011545;28;20034;-39
2021/06/16 02:13:40;;;;;;;9.20;6.72;;;;;;;13.28;80.75;93140.44;5012890;28;20032;-39
2021/06/16 02:16:14;;;;;;;6.82;6.13;;;;;;;13.33;80.56;93133.91;5011842;28;20112;-39
2021/06/16 02:18:43;;;;;;;9.07;6.78;;;;;;;13.31;80.84;93136.53;5019491;28;20061;-39
2021/06/16 02:21:08;;;;;;;6.27;5.73;;;;;;;13.29;81.11;93141.91;5003700;28;20122;-40
2021/06/16 02:23:34;;;;;;;6.03;5.63;;;;;;;13.35;80.73;93141.66;5008535;28;20527;-40
2021/06/16 02:25:59;;;;;;;7.20;5.60;;;;;;;13.30;80.81;93139.84;5020338;28;20046;-40
2021/06/16 02:28:25;;;;;;;8.80;5.88;;;;;;;13.37;80.46;93134.22;5011785;28;20038;-40
2021/06/16 02:30:51;;;;;;;7.28;5.85;;;;;;;13.33;80.77;93144.28;5014451;28;20030;-40
2021/06/16 02:33:17;;;;;;;6.78;6.07;;;;;;;13.33;80.50;93144.28;5014700;28;20021;-41
2021/06/16 02:35:43;;;;;;;6.18;5.22;;;;;;;13.41;80.35;93140.09;5012807;28;20033;-40
2021/06/16 02:38:12;;;;;;;5.88;5.47;;;;;;;13.47;79.88;93137.06;5011481;28;20050;-40
2021/06/16 02:40:40;;;;;;;6.43;5.18;;;;;;;13.50;79.98;93136.63;5012972;28;20026;-40
2021/06/16 02:43:06;;;;;;;11.50;6.10;;;;;;;13.38;80.64;93138.44;5011266;28;20036;-40
2021/06/16 02:45:32;;;;;;;6.03;5.47;;;;;;;13.37;80.75;93145.31;5020821;28;20025;-40
2021/06/16 02:47:59;;;;;;;6.07;5.53;;;;;;;13.32;80.74;93137.97;5031132;28;20025;-40
2021/06/16 02:50:27;;;;;;;8.40;5.57;;;;;;;13.34;80.58;93140.19;5018615;28;20029;-40
2021/06/16 02:52:54;;;;;;;6.07;5.47;;;;;;;13.29;80.42;93146.72;5030788;28;20025;-40
2021/06/16 02:55:23;;;;;;;6.00;5.38;;;;;;;13.40;79.67;93149.72;5031357;28;20021;-39
2021/06/16 02:57:50;;;;;;;6.70;6.10;;;;;;;13.26;80.34;93148.59;5029916;28;20022;-40
2021/06/16 03:00:16;;;;;;;6.18;5.57;;;;;;;13.27;80.39;93146.56;5047420;28;20037;-40
2021/06/16 03:02:45;;;;;;;6.65;6.05;;;;;;;13.22;80.66;93151.06;5030857;28;20673;-40
2021/06/16 03:05:14;;;;;;;6.53;5.93;;;;;;;13.26;80.62;93159.69;5032280;28;20048;-39
2021/06/16 03:07:40;;;;;;;6.40;5.80;;;;;;;13.24;80.49;93150.47;5030881;28;20129;-39
2021/06/16 03:10:07;;;;;;;7.20;6.70;;;;;;;13.22;81.07;93150.31;5047352;28;20109;-40
2021/06/16 03:12:33;;;;;;;12.73;7.82;;;;;;;13.24;81.24;93156.03;5030145;28;20029;-40
2021/06/16 03:14:59;;;;;;;7.20;6.60;;;;;;;13.28;81.09;93161.88;5030728;28;20028;-40
2021/06/16 03:17:26;;;;;;;7.32;6.63;;;;;;;13.22;81.44;93161.41;5031717;28;20430;-40
2021/06/16 03:19:52;;;;;;;7.45;6.85;;;;;;;13.28;81.49;93157.06;5030830;28;20025;-40
2021/06/16 03:22:19;;;;;;;7.32;6.72;;;;;;;13.30;81.30;93162.78;5029025;28;20029;-40
2021/06/16 03:24:47;;;;;;;6.97;6.40;;;;;;;13.27;81.09;93161.16;5011064;28;20021;-40
2021/06/16 03:27:13;;;;;;;7.68;6.68;;;;;;;13.31;80.83;93172.56;5010620;28;20026;-40
2021/06/16 03:29:39;;;;;;;6.97;6.28;;;;;;;13.29;81.66;93169.66;5027452;28;20017;-40
2021/06/16 03:32:09;;;;;;;7.40;6.80;;;;;;;13.34;81.50;93168.63;5027443;28;20486;-40
2021/06/16 03:34:36;;;;;;;6.50;5.90;;;;;;;13.44;81.20;93165.94;5011777;28;20028;-40
2021/06/16 03:37:02;;;;;;;6.70;6.10;;;;;;;13.49;81.42;93176.75;5011919;28;20025;-40
2021/06/16 03:39:29;;;;;;;8.23;7.22;;;;;;;13.54;81.48;93175.03;5010237;28;20504;-40
2021/06/16 03:41:54;;;;;;;7.55;6.95;;;;;;;13.58;82.01;93170.56;5011746;28;20034;-40
2021/06/16 03:44:21;;;;;;;7.13;6.53;;;;;;;13.65;81.65;93172.50;5027064;28;20141;-40
2021/06/16 03:46:47;;;;;;;6.55;6.05;;;;;;;13.48;81.39;93144.81;5011422;28;20032;-39
2021/06/16 03:49:14;;;;;;;10.48;6.45;;;;;;;13.73;81.82;93183.47;5011461;28;20026;-40
2021/06/16 03:51:41;;;;;;;6.38;5.90;;;;;;;13.74;81.88;93184.22;5018722;28;20053;-40
2021/06/16 03:54:11;;;;;;;7.55;6.72;;;;;;;13.80;81.70;93174.31;5030282;28;20049;-40
2021/06/16 03:56:44;;;;;;;6.70;6.07;;;;;;;13.94;81.02;93178.19;5031802;28;20028;-40
2021/06/16 03:59:10;;;;;;;8.32;6.28;;;;;;;13.95;81.16;93182.44;5031046;28;20033;-40
2021/06/16 04:01:43;;;;;;;7.32;5.78;;;;;;;13.96;80.53;93174.84;5030198;28;20060;-40
2021/06/16 04:04:10;;;;;;;13.43;8.43;;;;;;;14.04;79.63;93175.44;5031276;28;20035;-40
2021/06/16 04:06:36;;;;;;;7.55;6.85;;;;;;;14.09;79.48;93183.53;5030622;28;20536;-40
2021/06/16 04:09:02;;;;;;;9.35;7.00;;;;;;;14.10;79.89;93173.88;5031335;28;20049;-40
2021/06/16 04:11:28;;;;;;;7.80;7.20;;;;;;;14.03;80.36;93174.75;5030874;28;20065;-39
2021/06/16 04:13:56;;;;;;;7.63;6.80;;;;;;;14.07;80.52;93183.38;5046210;28;20061;-41
2021/06/16 04:16:23;;;;;;;7.50;6.85;;;;;;;14.16;80.11;93193.06;5030555;28;20026;-40
2021/06/16 04:18:49;;;;;;;7.88;5.85;;;;;;;14.12;80.18;93185.13;5029412;28;20033;-40
2021/06/16 04:21:14;;;;;;;7.32;6.15;;;;;;;14.15;80.43;93174.91;5030703;28;20033;-40
2021/06/16 04:23:40;;;;;;;6.32;5.93;;;;;;;14.10;80.91;93173.13;5016046;28;20029;-40
2021/06/16 04:26:05;;;;;;;6.85;6.25;;;;;;;14.11;81.63;93180.91;5011128;28;20033;-41
2021/06/16 04:28:30;;;;;;;6.72;6.22;;;;;;;14.08;81.77;93173.72;5011130;28;20022;-40
2021/06/16 04:30:56;;;;;;;7.25;6.70;;;;;;;14.18;81.10;93173.78;5010864;28;20033;-40
2021/06/16 04:33:21;;;;;;;7.35;6.75;;;;;;;14.21;81.28;93175.38;5010649;28;20405;-41
2021/06/16 04:35:47;;;;;;;7.60;6.57;;;;;;;14.16;81.62;93174.31;5009498;28;20073;-43
2021/06/16 04:38:12;;;;;;;7.47;6.78;;;;;;;14.20;81.57;93176.69;5010367;28;20042;-41
2021/06/16 04:40:38;;;;;;;7.68;6.88;;;;;;;14.23;81.31;93179.03;5010623;28;20045;-42
2021/06/16 04:43:03;;;;;;;7.30;6.15;;;;;;;14.25;81.62;93184.03;5010232;28;20036;-42
2021/06/16 04:45:28;;;;;;;7.00;6.40;;;;;;;14.31;81.16;93188.00;5010411;28;20022;-43
2021/06/16 04:47:54;;;;;;;7.60;6.15;;;;;;;14.32;81.02;93192.25;5010376;28;20025;-40
2021/06/16 04:50:19;;;;;;;7.35;6.75;;;;;;;14.32;81.27;93197.06;5010426;28;20029;-39
2021/06/16 04:52:45;;;;;;;7.05;6.50;;;;;;;14.34;81.29;93192.41;5010233;28;20026;-40
2021/06/16 04:55:12;;;;;;;14.38;7.57;;;;;;;14.45;80.88;93188.34;5010192;28;20041;-40
2021/06/16 04:57:38;;;;;;;8.23;7.30;;;;;;;14.49;80.79;93191.44;5010288;28;20030;-40
2021/06/16 05:00:09;;;;;;;6.93;6.43;;;;;;;14.46;80.69;93191.88;5010545;28;20042;-40
2021/06/16 05:02:34;;;;;;;8.02;7.28;;;;;;;14.51;81.11;93186.03;5010523;28;20048;-40
2021/06/16 05:04:59;;;;;;;7.55;6.85;;;;;;;14.51;81.42;93190.88;5010310;28;20429;-40
2021/06/16 05:07:25;;;;;;;8.20;7.40;;;;;;;14.60;81.17;93196.44;5010321;28;20512;-40
2021/06/16 05:09:50;;;;;;;25.80;10.32;;;;;;;14.53;81.53;93202.84;5010388;28;20037;-40
2021/06/16 05:12:16;;;;;;;14.95;13.52;;;;;;;14.60;81.96;93198.47;5010290;28;20492;-41
2021/06/16 05:14:41;;;;;;;17.38;15.52;;;;;;;14.69;81.43;93194.97;5010003;28;20022;-41
2021/06/16 05:17:07;;;;;;;14.05;12.77;;;;;;;14.77;81.22;93215.06;5009842;28;20117;-41
2021/06/16 05:19:33;;;;;;;14.68;11.77;;;;;;;14.83;80.95;93207.91;5009800;28;20018;-40
2021/06/16 05:22:06;;;;;;;23.38;19.30;;;;;;;14.92;80.64;93214.78;5009795;28;20033;-40
2021/06/16 05:24:32;;;;;;;34.83;27.13;;;;;;;14.93;80.42;93224.59;5007948;28;20030;-40
2021/06/16 05:26:57;;;;;;;25.40;18.65;;;;;;;14.93;80.74;93222.53;5008985;28;20044;-40
2021/06/16 05:29:23;;;;;;;21.67;16.58;;;;;;;14.99;80.59;93223.00;5009922;28;20030;-40
2021/06/16 05:31:48;;;;;;;17.85;14.77;;;;;;;15.06;80.81;93218.59;5010091;28;20104;-40
2021/06/16 05:34:13;;;;;;;12.52;11.23;;;;;;;15.07;80.90;93217.31;5009726;28;20033;-40
2021/06/16 05:36:39;;;;;;;13.43;11.20;;;;;;;15.08;80.49;93229.88;5005932;28;20041;-40
2021/06/16 05:39:05;;;;;;;18.85;14.90;;;;;;;15.11;80.42;93221.13;5000027;28;20057;-41
2021/06/16 05:41:31;;;;;;;18.98;14.15;;;;;;;15.13;79.81;93228.88;5008849;28;20505;-38
2021/06/16 05:43:56;;;;;;;15.27;11.70;;;;;;;15.08;79.74;93238.22;5008955;28;20104;-40
2021/06/16 05:46:22;;;;;;;13.63;11.45;;;;;;;14.99;80.20;93242.44;5007753;28;20026;-40
2021/06/16 05:48:47;;;;;;;82.95;75.88;;;;;;;15.00;80.58;93238.38;5008465;28;20033;-40
2021/06/16 05:51:13;;;;;;;19.77;13.73;;;;;;;15.03;80.90;93239.97;5008813;28;20033;-40
2021/06/16 05:53:38;;;;;;;17.95;14.27;;;;;;;15.08;81.50;93243.78;5008298;28;20092;-40
2021/06/16 05:56:04;;;;;;;15.57;13.57;;;;;;;15.09;81.58;93248.03;5008499;28;20026;-40
2021/06/16 05:58:29;;;;;;;16.13;12.40;;;;;;;15.10;81.78;93249.50;5008707;28;20739;-41
2021/06/16 06:00:55;;;;;;;13.70;11.95;;;;;;;15.12;82.10;93244.06;5010487;28;20036;-41
2021/06/16 06:03:20;;;;;;;13.77;12.35;;;;;;;15.14;81.87;93252.56;5013435;28;20017;-39
2021/06/16 06:05:46;;;;;;;15.57;13.52;;;;;;;15.06;82.48;93249.19;4988505;28;20042;-40
2021/06/16 06:08:11;;;;;;;14.88;13.35;;;;;;;15.12;82.66;93246.84;4998709;28;20034;-39
2021/06/16 06:10:37;;;;;;;26.75;21.90;;;;;;;15.18;83.44;93250.09;4989087;28;20058;-40
2021/06/16 06:13:02;;;;;;;15.98;14.45;;;;;;;15.28;82.82;93248.06;4988915;28;20470;-40
2021/06/16 06:15:28;;;;;;;9.65;8.70;;;;;;;15.38;82.72;93259.16;4988767;28;20032;-39
2021/06/16 06:17:54;;;;;;;9.80;8.93;;;;;;;15.45;82.98;93255.53;4988939;28;20030;-40
2021/06/16 06:20:20;;;;;;;7.70;6.97;;;;;;;15.48;83.00;93257.91;4988781;28;20080;-39
2021/06/16 06:22:45;;;;;;;8.80;7.32;;;;;;;15.56;82.99;93266.09;4993408;28;20034;-40
2021/06/16 06:25:11;;;;;;;7.57;6.38;;;;;;;15.70;82.29;93272.69;5018605;28;20103;-39
2021/06/16 06:27:38;;;;;;;7.22;6.50;;;;;;;15.82;81.45;93273.56;5027664;28;20109;-40
2021/06/16 06:30:04;;;;;;;7.57;6.88;;;;;;;15.89;81.41;93276.22;5015762;28;20037;-40
2021/06/16 06:32:29;;;;;;;11.70;10.57;;;;;;;16.02;81.78;93274.28;5023760;28;20488;-39
2021/06/16 06:34:55;;;;;;;8.27;7.32;;;;;;;16.14;81.10;93267.50;5018903;28;20034;-41
2021/06/16 06:37:20;;;;;;;6.00;5.40;;;;;;;16.26;79.51;93268.38;5007402;28;20497;-40
2021/06/16 06:39:46;;;;;;;5.78;5.20;;;;;;;16.37;78.32;93267.72;5025861;28;20049;-39
2021/06/16 06:42:14;;;;;;;7.07;5.45;;;;;;;16.43;78.52;93278.56;5020234;28;20036;-40
2021/06/16 06:44:40;;;;;;;5.55;5.00;;;;;;;16.50;79.05;93278.41;5006145;28;20025;-39
2021/06/16 06:47:05;;;;;;;8.02;5.85;;;;;;;16.55;79.31;93285.00;5008004;28;20449;-39
2021/06/16 06:49:30;;;;;;;5.78;5.25;;;;;;;16.58;79.64;93284.56;5009894;28;20088;-40
2021/06/16 06:51:56;;;;;;;5.40;4.57;;;;;;;16.68;79.65;93278.94;5009858;28;20038;-40
2021/06/16 06:54:21;;;;;;;6.72;6.22;;;;;;;16.81;79.74;93272.88;5009577;28;20417;-40
2021/06/16 06:56:47;;;;;;;6.35;5.70;;;;;;;16.97;79.91;93273.97;5009474;28;20497;-40
2021/06/16 06:59:12;;;;;;;6.22;5.70;;;;;;;17.40;78.93;93258.75;5008934;28;20575;-40
2021/06/16 07:01:37;;;;;;;7.72;5.90;;;;;;;17.69;78.80;93247.38;5008127;28;20030;-39
2021/06/16 07:04:04;;;;;;;5.25;4.85;;;;;;;17.85;77.60;93245.63;5009139;28;20034;-40
2021/06/16 07:06:29;;;;;;;9.25;5.80;;;;;;;17.96;77.68;93253.31;5009414;28;20136;-40
2021/06/16 07:08:55;;;;;;;5.88;4.90;;;;;;;18.00;76.54;93247.25;5008970;28;20030;-41
2021/06/16 07:11:20;;;;;;;35.08;32.22;;;;;;;18.13;76.15;93258.59;5008441;28;20037;-40
2021/06/16 07:13:46;;;;;;;7.50;6.72;;;;;;;18.26;75.41;93251.69;5008976;28;20084;-40
2021/06/16 07:16:11;;;;;;;8.73;7.50;;;;;;;18.41;74.93;93256.81;5008844;28;20041;-40
2021/06/16 07:18:37;;;;;;;6.63;6.03;;;;;;;18.67;74.08;93266.13;5009201;28;20061;-40
2021/06/16 07:21:03;;;;;;;4.78;4.38;;;;;;;18.84;71.48;93266.50;5006764;28;20041;-39
2021/06/16 07:23:28;;;;;;;5.82;4.82;;;;;;;18.98;70.19;93272.22;5007044;28;20112;-40
2021/06/16 07:25:54;;;;;;;6.38;4.95;;;;;;;19.04;67.87;93266.97;5007694;28;20113;-39
2021/06/16 07:28:19;;;;;;;5.60;4.47;;;;;;;18.99;68.35;93270.91;5008403;28;20049;-40
2021/06/16 07:30:44;;;;;;;4.97;4.55;;;;;;;18.91;68.29;93276.72;5007787;28;20037;-39
2021/06/16 07:33:10;;;;;;;5.95;5.18;;;;;;;18.99;69.15;93270.91;5007191;28;20257;-40
2021/06/16 07:35:36;;;;;;;5.28;4.45;;;;;;;19.01;68.58;93278.69;5007042;28;20030;-39
2021/06/16 07:38:02;;;;;;;4.47;4.13;;;;;;;19.04;68.70;93280.97;5006051;28;20421;-41
2021/06/16 07:40:27;;;;;;;5.00;4.50;;;;;;;19.05;68.63;93276.84;5007204;28;20030;-40
2021/06/16 07:42:53;;;;;;;7.28;5.25;;;;;;;19.46;67.38;93277.19;5007201;28;20057;-39
2021/06/16 07:45:18;;;;;;;4.20;3.78;;;;;;;20.35;62.78;93277.41;5007205;28;20048;-40
2021/06/16 07:47:44;;;;;;;4.05;3.75;;;;;;;20.56;60.71;93279.97;5006941;28;20022;-40
2021/06/16 07:50:10;;;;;;;5.13;4.65;;;;;;;21.02;59.95;93279.66;5006872;28;20025;-39
2021/06/16 07:52:36;;;;;;;4.78;4.38;;;;;;;21.10;59.20;93282.91;5008076;28;20409;-39
2021/06/16 07:55:02;;;;;;;4.28;3.65;;;;;;;20.89;59.17;93269.13;5007122;28;20029;-39
2021/06/16 07:57:28;;;;;;;3.67;3.38;;;;;;;20.75;59.93;93273.97;5007077;28;20057;-39
2021/06/16 07:59:53;;;;;;;4.43;4.03;;;;;;;20.46;60.06;93271.00;5005987;28;20571;-39
2021/06/16 08:02:19;;;;;;;3.47;3.17;;;;;;;20.22;60.74;93278.06;5007036;28;20021;-39
2021/06/16 08:04:44;;;;;;;3.85;3.55;;;;;;;20.61;60.41;93270.44;5007133;28;20395;-39
2021/06/16 08:07:11;;;;;;;5.72;5.22;;;;;;;20.66;59.55;93279.78;5007256;28;20049;-39
2021/06/16 08:09:39;;;;;;;6.88;4.30;;;;;;;21.44;58.93;93283.25;5007647;28;20734;-39
2021/06/16 08:12:04;;;;;;;5.97;5.37;;;;;;;22.75;55.08;93289.69;5006769;28;20108;-39
2021/06/16 08:14:30;;;;;;;4.00;3.45;;;;;;;23.30;53.29;93288.00;5006859;28;20499;-40
2021/06/16 08:16:55;;;;;;;6.28;5.28;;;;;;;23.46;51.45;93277.47;5005959;28;20029;-39
2021/06/16 08:19:21;;;;;;;4.80;4.38;;;;;;;23.84;50.56;93287.56;5006894;28;20576;-39
2021/06/16 08:21:46;;;;;;;3.22;2.78;;;;;;;23.71;50.20;93296.88;5006197;28;20033;-39
2021/06/16 08:24:12;;;;;;;5.82;5.25;;;;;;;23.40;50.49;93291.28;5003783;28;20088;-39
2021/06/16 08:26:37;;;;;;;4.68;3.45;;;;;;;23.10;52.05;93290.63;5006377;28;20076;-39
2021/06/16 08:29:03;;;;;;;3.75;3.45;;;;;;;23.22;50.82;93287.63;5006194;28;20021;-39
2021/06/16 08:31:28;;;;;;;4.00;3.22;;;;;;;23.12;50.71;93293.53;5006970;28;20022;-39
2021/06/16 08:33:53;;;;;;;11.88;6.93;;;;;;;22.83;51.29;93306.94;5007123;28;20080;-38
2021/06/16 08:36:20;;;;;;;3.97;3.67;;;;;;;22.44;52.90;93307.94;5006458;28;20127;-39
2021/06/16 08:38:46;;;;;;;5.00;4.50;;;;;;;22.42;53.75;93307.84;5007453;28;20637;-40
2021/06/16 08:41:11;;;;;;;6.05;4.88;;;;;;;23.17;53.55;93308.53;5008176;28;20025;-39
2021/06/16 08:43:42;;;;;;;4.13;3.70;;;;;;;24.12;48.80;93316.25;5008396;28;20026;-40
2021/06/16 08:46:16;;;;;;;3.08;2.85;;;;;;;25.18;44.47;93314.19;5008337;28;20030;-39
2021/06/16 08:48:42;;;;;;;3.28;3.00;;;;;;;25.09;45.31;93309.59;5008550;28;20103;-39
2021/06/16 08:51:12;;;;;;;2.90;2.70;;;;;;;25.98;44.43;93313.59;5009052;28;20064;-39
2021/06/16 08:53:38;;;;;;;2.83;2.55;;;;;;;26.64;43.23;93303.06;5008141;28;20465;-39
2021/06/16 08:56:03;;;;;;;2.75;2.55;;;;;;;26.80;41.37;93317.75;5007832;28;20053;-40
2021/06/16 08:58:34;;;;;;;3.28;3.00;;;;;;;26.60;41.00;93308.56;5007785;28;20052;-40
2021/06/16 09:01:01;;;;;;;4.75;2.70;;;;;;;26.81;40.57;93314.25;5008046;28;20080;-40
2021/06/16 09:03:26;;;;;;;3.35;2.60;;;;;;;27.57;41.56;93321.56;5007995;28;21402;-42
2021/06/16 09:05:52;;;;;;;3.65;3.35;;;;;;;28.31;38.36;93314.41;5005562;28;20022;-41
2021/06/16 09:08:22;;;;;;;2.97;2.78;;;;;;;28.98;37.02;93316.06;5007669;28;20517;-42
2021/06/16 09:10:53;;;;;;;4.88;4.40;;;;;;;29.76;36.60;93311.44;5007778;28;20029;-42
2021/06/16 09:13:31;;;;;;;8.75;3.40;;;;;;;30.15;36.60;93312.94;5007716;28;20078;-40
2021/06/16 09:15:58;;;;;;;2.70;2.50;;;;;;;30.86;34.50;93318.53;5008329;28;20037;-37
2021/06/16 09:18:24;;;;;;;2.42;2.10;;;;;;;31.00;34.58;93320.88;5008382;28;20065;-40
2021/06/16 09:20:54;;;;;;;2.58;2.00;;;;;;;31.09;34.00;93328.88;5008325;28;20056;-40
2021/06/16 09:23:21;;;;;;;1.90;1.80;;;;;;;31.19;32.63;93328.28;5008186;28;20030;-40
2021/06/16 09:26:11;;;;;;;3.28;2.05;;;;;;;30.54;33.57;93332.91;5008607;28;20161;-40
2021/06/16 09:28:41;;;;;;;2.28;2.08;;;;;;;30.30;34.22;93335.28;5008055;28;20038;-40
2021/06/16 09:31:07;;;;;;;3.38;2.60;;;;;;;29.65;35.41;93333.25;5008767;28;20029;-40
2021/06/16 09:33:33;;;;;;;2.50;2.30;;;;;;;29.43;36.13;93321.41;5008875;28;20026;-39
2021/06/16 09:35:59;;;;;;;3.05;2.83;;;;;;;29.56;36.88;93331.63;5008381;28;20033;-40
2021/06/16 09:38:31;;;;;;;2.90;2.70;;;;;;;30.01;36.38;93332.56;5007644;28;20065;-40
2021/06/16 09:40:58;;;;;;;5.13;3.50;;;;;;;30.10;34.17;93334.19;5008165;28;20069;-40
2021/06/16 09:43:23;;;;;;;3.33;2.75;;;;;;;30.30;35.50;93331.72;5008306;28;20132;-40
2021/06/16 09:46:00;;;;;;;4.75;2.83;;;;;;;30.58;34.51;93338.66;5008455;28;20057;-40
2021/06/16 09:48:32;;;;;;;4.13;2.67;;;;;;;29.79;35.00;93344.97;5005482;28;20025;-40
2021/06/16 09:51:23;;;;;;;3.22;2.92;;;;;;;29.81;36.87;93345.00;5000006;28;20113;-40
2021/06/16 09:53:52;;;;;;;2.75;2.55;;;;;;;29.37;35.32;93346.84;4994198;28;20027;-40
2021/06/16 09:56:18;;;;;;;4.47;3.00;;;;;;;29.21;38.31;93352.91;4989076;28;20034;-40
2021/06/16 09:58:43;;;;;;;3.65;3.15;;;;;;;29.18;36.43;93357.09;4989305;28;20065;-40
2021/06/16 10:01:09;;;;;;;2.60;2.10;;;;;;;28.82;36.39;93361.16;4989332;28;20100;-41
2021/06/16 10:03:34;;;;;;;5.22;2.85;;;;;;;28.42;36.86;93366.50;4989419;28;20417;-41
2021/06/16 10:06:10;;;;;;;2.55;2.10;;;;;;;28.14;37.99;93366.47;4994774;28;20417;-40
2021/06/16 10:08:36;;;;;;;3.42;3.13;;;;;;;28.01;37.46;93358.28;5008476;28;20553;-42
2021/06/16 10:11:04;;;;;;;2.97;2.28;;;;;;;27.77;37.23;93361.13;5008569;28;20032;-41
2021/06/16 10:13:30;;;;;;;3.22;2.97;;;;;;;27.58;37.34;93359.16;5008504;28;20032;-41
2021/06/16 10:15:57;;;;;;;4.45;2.95;;;;;;;27.77;38.07;93366.81;5008301;28;20036;-40
2021/06/16 10:18:23;;;;;;;5.60;2.80;;;;;;;27.97;38.54;93358.91;5007971;28;20517;-41
2021/06/16 10:20:53;;;;;;;3.38;3.08;;;;;;;27.86;39.21;93368.47;5008658;28;20018;-41
2021/06/16 10:23:18;;;;;;;4.72;2.65;;;;;;;27.79;40.26;93370.44;5011966;28;20030;-41
2021/06/16 10:25:44;;;;;;;2.10;2.00;;;;;;;27.97;39.52;93375.94;5012134;28;20052;-41
2021/06/16 10:28:21;;;;;;;2.60;2.25;;;;;;;27.47;38.08;93369.47;5012414;28;20030;-40
2021/06/16 10:30:55;;;;;;;3.20;2.83;;;;;;;27.30;40.27;93372.47;5010934;28;20033;-39
2021/06/16 10:33:31;;;;;;;6.10;3.92;;;;;;;27.42;39.70;93375.69;5018664;28;20088;-40
2021/06/16 10:36:10;;;;;;;4.95;3.40;;;;;;;27.65;39.92;93377.81;5009583;28;20032;-40
2021/06/16 10:38:36;;;;;;;;;;;;;;;27.81;40.84;93377.56;5007192;28;20057;-40
2021/06/16 10:41:02;;;;;;;6.65;2.60;;;;;;;28.06;39.66;93369.09;5011684;28;19909;-40
2021/06/16 10:43:38;;;;;;;2.53;2.33;;;;;;;28.61;37.47;93376.25;5011056;28;20544;-41
2021/06/16 10:46:15;;;;;;;2.60;2.10;;;;;;;28.43;36.56;93363.00;5011253;28;20471;-40
2021/06/16 10:48:59;;;;;;;3.30;2.20;;;;;;;28.52;36.88;93369.63;5009894;28;20060;-39
2021/06/16 10:51:38;;;;;;;4.22;2.15;;;;;;;27.98;37.41;93373.81;5008978;28;20432;-39
2021/06/16 10:54:21;;;;;;;4.85;4.45;;;;;;;28.21;37.69;93370.94;5010249;28;20176;-39
2021/06/16 10:56:49;;;;;;;2.47;2.28;;;;;;;28.53;37.30;93366.09;5011085;28;20398;-40
2021/06/16 10:59:48;;;;;;;2.05;1.95;;;;;;;28.33;38.33;93376.19;5009440;28;20517;-40
2021/06/16 11:02:28;;;;;;;2.13;1.85;;;;;;;27.84;38.01;93374.09;5010677;28;20688;-39
2021/06/16 11:05:17;;;;;;;2.92;2.10;;;;;;;27.49;40.55;93380.16;5006220;28;20587;-40
2021/06/16 11:07:43;;;;;;;1.90;1.80;;;;;;;27.61;38.34;93383.38;5011034;28;20040;-39
2021/06/16 11:10:08;;;;;;;1.92;1.73;;;;;;;27.34;38.77;93383.91;5010778;28;20026;-40
2021/06/16 11:12:41;;;;;;;2.13;2.03;;;;;;;27.16;38.17;93381.25;5011399;28;20042;-38
2021/06/16 11:15:11;;;;;;;1.85;1.75;;;;;;;27.23;39.31;93373.66;5011228;28;20525;-39
2021/06/16 11:17:36;;;;;;;2.10;1.90;;;;;;;26.89;39.99;93376.13;5009139;28;20042;-38
2021/06/16 11:20:35;;;;;;;2.58;2.17;;;;;;;26.43;40.42;93383.78;4996440;28;20133;-39
2021/06/16 11:23:02;;;;;;;2.20;2.00;;;;;;;26.05;38.83;93377.47;4993556;28;20046;-40
2021/06/16 11:25:34;;;;;;;2.35;2.17;;;;;;;25.69;41.24;93383.91;5010741;28;20501;-40
2021/06/16 11:28:17;;;;;;;2.17;2.08;;;;;;;25.13;43.17;93386.03;5010747;28;20042;-39
2021/06/16 11:30:54;;;;;;;3.38;2.88;;;;;;;24.72;44.67;93382.94;5010992;28;20029;-39
2021/06/16 11:33:23;;;;;;;3.58;2.97;;;;;;;24.34;45.59;93387.00;5010468;28;20472;-39